createdAt,value
2018-02-14T00:00:04.057Z,24.20
2018-02-14T00:01:04.029Z,19.40
2018-02-14T00:02:04.005Z,23.90
2018-02-14T00:03:03.982Z,20.40
2018-02-14T00:04:03.962Z,20.20
2018-02-14T00:05:03.942Z,20.10
2018-02-14T00:06:03.911Z,20.30
2018-02-14T00:07:03.893Z,19.70
2018-02-14T00:08:03.868Z,18.10
2018-02-14T00:09:03.842Z,21.40
2018-02-14T00:10:03.825Z,21.80
2018-02-14T00:11:03.799Z,19.20
2018-02-14T00:12:03.773Z,21.30
2018-02-14T00:13:03.748Z,19.10
2018-02-14T00:14:03.725Z,20.70
2018-02-14T00:15:03.711Z,21.10
2018-02-14T00:16:03.680Z,22.90
2018-02-14T00:17:03.656Z,20.20
2018-02-14T00:18:03.634Z,19.90
2018-02-14T00:19:03.610Z,17.70
2018-02-14T00:20:03.597Z,19.10
2018-02-14T00:21:03.564Z,19.80
2018-02-14T00:22:03.545Z,21.20
2018-02-14T00:23:03.515Z,20.70
2018-02-14T00:24:03.500Z,18.20
2018-02-14T00:25:03.469Z,20.90
2018-02-14T00:26:03.450Z,21.00
2018-02-14T00:27:03.436Z,19.40
2018-02-14T00:28:03.400Z,18.60
2018-02-14T00:29:03.378Z,16.60
2018-02-14T00:30:03.353Z,18.00
2018-02-14T00:31:03.330Z,19.80
2018-02-14T00:32:03.308Z,18.00
2018-02-14T00:33:03.289Z,22.30
2018-02-14T00:34:03.260Z,17.80
2018-02-14T00:35:03.243Z,18.70
2018-02-14T00:36:03.210Z,18.70
2018-02-14T00:37:03.189Z,21.70
2018-02-14T00:38:03.161Z,22.80
2018-02-14T00:39:03.139Z,18.30
2018-02-14T00:40:03.122Z,20.50
2018-02-14T00:41:03.099Z,25.00
2018-02-14T00:42:03.068Z,19.60
2018-02-14T00:43:03.049Z,18.60
2018-02-14T00:44:03.019Z,20.70
2018-02-14T00:45:03.000Z,20.50
2018-02-14T00:46:02.971Z,22.10
2018-02-14T00:47:02.948Z,21.70
2018-02-14T00:48:02.934Z,20.70
2018-02-14T00:49:02.900Z,22.80
2018-02-14T00:50:02.875Z,21.40
2018-02-14T00:51:02.856Z,19.10
2018-02-14T00:52:02.829Z,19.00
2018-02-14T00:53:02.806Z,21.00
2018-02-14T00:54:02.788Z,21.80
2018-02-14T00:55:02.759Z,18.80
2018-02-14T00:56:02.739Z,19.50
2018-02-14T00:57:02.708Z,23.20
2018-02-14T00:58:02.688Z,23.90
2018-02-14T00:59:02.667Z,22.20
2018-02-14T01:00:02.640Z,18.10
2018-02-14T01:01:02.615Z,22.10
2018-02-14T01:02:02.589Z,20.40
2018-02-14T01:03:02.569Z,20.40
2018-02-14T01:04:02.543Z,19.10
2018-02-14T01:05:02.530Z,19.60
2018-02-14T01:06:02.495Z,18.50
2018-02-14T01:07:02.473Z,19.30
2018-02-14T01:08:02.450Z,20.10
2018-02-14T01:09:02.424Z,21.70
2018-02-14T01:10:02.450Z,20.30
2018-02-14T01:11:02.384Z,20.00
2018-02-14T01:12:02.393Z,18.70
2018-02-14T01:13:02.330Z,19.40
2018-02-14T01:14:02.374Z,18.10
2018-02-14T01:15:02.284Z,18.10
2018-02-14T01:16:02.358Z,19.40
2018-02-14T01:17:02.237Z,18.70
2018-02-14T01:18:02.273Z,18.60
2018-02-14T01:19:02.190Z,19.50
2018-02-14T01:20:02.245Z,20.80
2018-02-14T01:21:02.142Z,18.90
2018-02-14T01:22:02.169Z,18.90
2018-02-14T01:23:02.090Z,17.90
2018-02-14T01:24:02.067Z,15.70
2018-02-14T01:25:02.039Z,21.70
2018-02-14T01:26:02.021Z,17.30
2018-02-14T01:27:02.006Z,18.30
2018-02-14T01:28:01.972Z,18.30
2018-02-14T01:29:01.948Z,19.80
2018-02-14T01:30:01.931Z,18.00
2018-02-14T01:31:01.900Z,19.20
2018-02-14T01:32:01.881Z,18.10
2018-02-14T01:33:01.853Z,18.10
2018-02-14T01:34:01.828Z,18.90
2018-02-14T01:35:01.811Z,19.20
2018-02-14T01:36:01.780Z,18.60
2018-02-14T01:37:01.775Z,18.80
2018-02-14T01:38:01.742Z,19.30
2018-02-14T01:39:01.709Z,16.70
2018-02-14T01:40:01.681Z,21.50
2018-02-14T01:41:01.657Z,18.50
2018-02-14T01:42:01.634Z,17.90
2018-02-14T01:43:01.619Z,18.80
2018-02-14T01:44:01.591Z,19.40
2018-02-14T01:45:01.564Z,19.70
2018-02-14T01:46:01.540Z,19.00
2018-02-14T01:47:01.526Z,18.10
2018-02-14T01:48:01.492Z,16.10
2018-02-14T01:49:01.470Z,16.10
2018-02-14T01:50:01.442Z,19.30
2018-02-14T01:51:01.420Z,19.60
2018-02-14T01:52:01.394Z,17.90
2018-02-14T01:53:01.370Z,17.60
2018-02-14T01:54:01.357Z,17.00
2018-02-14T01:55:01.322Z,16.50
2018-02-14T01:56:01.298Z,20.10
2018-02-14T01:57:01.280Z,19.10
2018-02-14T01:58:01.251Z,16.10
2018-02-14T01:59:01.225Z,20.60
2018-02-14T02:00:01.200Z,16.50
2018-02-14T02:01:01.180Z,17.00
2018-02-14T02:02:01.160Z,18.50
2018-02-14T02:03:01.129Z,17.00
2018-02-14T02:04:01.111Z,18.10
2018-02-14T02:05:01.080Z,18.00
2018-02-14T02:06:01.061Z,16.70
2018-02-14T02:07:01.035Z,16.20
2018-02-14T02:08:01.011Z,16.50
2018-02-14T02:09:00.991Z,16.90
2018-02-14T02:10:00.995Z,18.50
2018-02-14T02:11:00.934Z,15.70
2018-02-14T02:12:00.916Z,17.10
2018-02-14T02:13:00.889Z,16.70
2018-02-14T02:14:00.866Z,17.60
2018-02-14T02:15:00.844Z,15.60
2018-02-14T02:16:00.816Z,16.00
2018-02-14T02:17:00.790Z,17.10
2018-02-14T02:18:00.770Z,18.40
2018-02-14T02:19:00.743Z,16.60
2018-02-14T02:20:00.721Z,14.40
2018-02-14T02:21:00.697Z,15.60
2018-02-14T02:22:00.676Z,17.60
2018-02-14T02:23:00.648Z,15.80
2018-02-14T02:24:00.619Z,14.40
2018-02-14T02:25:00.596Z,18.00
2018-02-14T02:26:00.576Z,15.20
2018-02-14T02:27:00.549Z,13.90
2018-02-14T02:28:00.527Z,16.80
2018-02-14T02:29:00.501Z,16.20
2018-02-14T02:30:00.482Z,14.70
2018-02-14T02:31:00.450Z,15.70
2018-02-14T02:32:00.428Z,16.50
2018-02-14T02:33:00.459Z,16.00
2018-02-14T02:34:00.380Z,16.00
2018-02-14T02:35:00.404Z,13.80
2018-02-14T02:36:00.330Z,15.50
2018-02-14T02:37:00.374Z,14.30
2018-02-14T02:38:00.282Z,15.10
2018-02-14T02:39:00.362Z,16.10
2018-02-14T02:40:00.234Z,14.70
2018-02-14T02:41:00.211Z,15.00
2018-02-14T02:42:00.225Z,17.90
2018-02-14T02:43:00.161Z,13.30
2018-02-14T02:44:00.138Z,14.90
2018-02-14T02:45:00.139Z,16.10
2018-02-14T02:46:00.092Z,15.70
2018-02-14T02:47:00.111Z,13.60
2018-02-14T02:48:00.041Z,15.20
2018-02-14T02:49:00.071Z,15.80
2018-02-14T02:49:59.992Z,14.30
2018-02-14T02:51:00.070Z,15.70
2018-02-14T02:51:59.946Z,14.10
2018-02-14T02:52:59.923Z,17.20
2018-02-14T02:53:59.897Z,13.70
2018-02-14T02:54:59.870Z,14.10
2018-02-14T02:55:59.852Z,14.00
2018-02-14T02:56:59.820Z,17.30
2018-02-14T02:57:59.798Z,16.60
2018-02-14T02:58:59.775Z,14.60
2018-02-14T02:59:59.751Z,15.20
2018-02-14T03:00:59.727Z,15.50
2018-02-14T03:01:59.701Z,14.80
2018-02-14T03:02:59.673Z,14.40
2018-02-14T03:03:59.650Z,15.50
2018-02-14T03:04:59.636Z,15.10
2018-02-14T03:05:59.608Z,13.50
2018-02-14T03:06:59.579Z,17.30
2018-02-14T03:07:59.560Z,14.10
2018-02-14T03:08:59.531Z,14.20
2018-02-14T03:09:59.511Z,14.70
2018-02-14T03:10:59.481Z,15.00
2018-02-14T03:11:59.458Z,16.60
2018-02-14T03:12:59.441Z,18.10
2018-02-14T03:13:59.409Z,15.70
2018-02-14T03:14:59.396Z,17.00
2018-02-14T03:15:59.367Z,14.20
2018-02-14T03:16:59.335Z,16.70
2018-02-14T03:17:59.309Z,16.80
2018-02-14T03:18:59.286Z,15.70
2018-02-14T03:19:59.263Z,15.30
2018-02-14T03:20:59.238Z,15.90
2018-02-14T03:21:59.216Z,16.50
2018-02-14T03:22:59.188Z,16.00
2018-02-14T03:23:59.167Z,17.80
2018-02-14T03:24:59.144Z,16.00
2018-02-14T03:25:59.118Z,17.40
2018-02-14T03:26:59.099Z,15.70
2018-02-14T03:27:59.069Z,15.90
2018-02-14T03:28:59.049Z,15.90
2018-02-14T03:29:59.026Z,17.20
2018-02-14T03:30:59.000Z,17.70
2018-02-14T03:31:58.976Z,17.30
2018-02-14T03:32:58.949Z,16.50
2018-02-14T03:33:58.923Z,17.50
2018-02-14T03:34:58.899Z,15.40
2018-02-14T03:35:58.876Z,18.00
2018-02-14T03:36:58.853Z,16.60
2018-02-14T03:37:58.827Z,17.50
2018-02-14T03:38:58.805Z,21.50
2018-02-14T03:39:58.779Z,16.80
2018-02-14T03:40:58.757Z,17.10
2018-02-14T03:41:58.730Z,18.10
2018-02-14T03:42:58.713Z,20.80
2018-02-14T03:43:58.680Z,17.00
2018-02-14T03:44:58.658Z,16.90
2018-02-14T03:45:58.636Z,20.80
2018-02-14T03:46:58.606Z,17.90
2018-02-14T03:47:58.584Z,17.30
2018-02-14T03:48:58.560Z,17.60
2018-02-14T03:49:58.537Z,17.20
2018-02-14T03:50:58.512Z,19.30
2018-02-14T03:51:58.486Z,17.20
2018-02-14T03:52:58.467Z,19.60
2018-02-14T03:53:58.440Z,20.00
2018-02-14T03:54:58.411Z,17.10
2018-02-14T03:55:58.388Z,16.40
2018-02-14T03:56:58.364Z,18.50
2018-02-14T03:57:58.348Z,17.30
2018-02-14T03:58:58.314Z,17.20
2018-02-14T03:59:58.297Z,19.40
2018-02-14T04:00:58.268Z,17.20
2018-02-14T04:01:58.243Z,15.90
2018-02-14T04:02:58.218Z,18.00
2018-02-14T04:03:58.196Z,17.00
2018-02-14T04:04:58.168Z,19.00
2018-02-14T04:05:58.150Z,18.80
2018-02-14T04:06:58.119Z,17.10
2018-02-14T04:07:58.143Z,18.30
2018-02-14T04:08:58.081Z,19.40
2018-02-14T04:09:58.048Z,17.30
2018-02-14T04:10:58.022Z,16.20
2018-02-14T04:11:57.998Z,18.50
2018-02-14T04:12:57.977Z,18.80
2018-02-14T04:13:57.950Z,17.50
2018-02-14T04:14:57.926Z,17.20
2018-02-14T04:15:57.908Z,21.50
2018-02-14T04:16:57.877Z,19.10
2018-02-14T04:17:57.858Z,19.70
2018-02-14T04:18:57.838Z,17.60
2018-02-14T04:19:57.808Z,21.20
2018-02-14T04:20:57.793Z,18.20
2018-02-14T04:21:57.755Z,17.70
2018-02-14T04:22:57.731Z,17.80
2018-02-14T04:23:57.710Z,19.50
2018-02-14T04:24:57.686Z,17.00
2018-02-14T04:25:57.659Z,19.80
2018-02-14T04:26:57.634Z,19.00
2018-02-14T04:27:57.614Z,17.50
2018-02-14T04:28:57.589Z,18.60
2018-02-14T04:29:57.565Z,17.50
2018-02-14T04:30:57.539Z,21.40
2018-02-14T04:31:57.510Z,19.10
2018-02-14T04:32:57.490Z,17.20
2018-02-14T04:33:57.470Z,18.70
2018-02-14T04:34:57.441Z,18.60
2018-02-14T04:35:57.419Z,19.30
2018-02-14T04:36:57.388Z,16.50
2018-02-14T04:37:57.368Z,18.40
2018-02-14T04:38:57.346Z,20.00
2018-02-14T04:39:57.318Z,18.80
2018-02-14T04:40:57.294Z,16.10
2018-02-14T04:41:57.268Z,19.30
2018-02-14T04:42:57.245Z,19.80
2018-02-14T04:43:57.219Z,19.50
2018-02-14T04:44:57.198Z,17.30
2018-02-14T04:45:57.178Z,16.30
2018-02-14T04:46:57.150Z,20.70
2018-02-14T04:47:57.137Z,19.50
2018-02-14T04:48:57.102Z,19.30
2018-02-14T04:49:57.075Z,21.80
2018-02-14T04:50:57.051Z,21.10
2018-02-14T04:51:57.026Z,17.60
2018-02-14T04:52:57.003Z,16.80
2018-02-14T04:53:56.980Z,20.70
2018-02-14T04:54:56.959Z,18.60
2018-02-14T04:55:56.931Z,21.10
2018-02-14T04:56:56.908Z,18.60
2018-02-14T04:57:56.878Z,19.00
2018-02-14T04:58:56.861Z,18.40
2018-02-14T04:59:56.836Z,18.10
2018-02-14T05:00:56.807Z,19.90
2018-02-14T05:01:56.780Z,17.80
2018-02-14T05:02:56.757Z,19.60
2018-02-14T05:03:56.733Z,21.10
2018-02-14T05:04:56.710Z,20.90
2018-02-14T05:05:56.690Z,19.80
2018-02-14T05:06:56.657Z,18.80
2018-02-14T05:07:56.636Z,20.90
2018-02-14T05:08:56.610Z,20.10
2018-02-14T05:09:56.586Z,18.40
2018-02-14T05:10:56.563Z,20.90
2018-02-14T05:11:56.535Z,21.40
2018-02-14T05:12:56.518Z,18.80
2018-02-14T05:13:56.488Z,20.90
2018-02-14T05:14:56.461Z,21.80
2018-02-14T05:15:56.437Z,18.90
2018-02-14T05:16:56.415Z,22.30
2018-02-14T05:17:56.390Z,19.80
2018-02-14T05:18:56.370Z,20.30
2018-02-14T05:19:56.345Z,21.00
2018-02-14T05:20:56.320Z,20.10
2018-02-14T05:21:56.292Z,20.00
2018-02-14T05:22:56.272Z,21.60
2018-02-14T05:23:56.248Z,21.10
2018-02-14T05:24:56.217Z,19.70
2018-02-14T05:25:56.198Z,19.10
2018-02-14T05:26:56.169Z,20.40
2018-02-14T05:27:56.150Z,18.10
2018-02-14T05:28:56.119Z,22.20
2018-02-14T05:29:56.099Z,18.60
2018-02-14T05:30:56.080Z,21.60
2018-02-14T05:31:56.048Z,17.90
2018-02-14T05:32:56.027Z,20.70
2018-02-14T05:33:55.999Z,19.40
2018-02-14T05:34:55.973Z,20.20
2018-02-14T05:35:55.951Z,18.80
2018-02-14T05:36:55.928Z,19.10
2018-02-14T05:37:55.903Z,22.30
2018-02-14T05:38:55.873Z,20.30
2018-02-14T05:39:55.849Z,19.50
2018-02-14T05:40:55.826Z,20.40
2018-02-14T05:41:55.807Z,20.50
2018-02-14T05:42:55.778Z,21.30
2018-02-14T05:43:55.759Z,22.50
2018-02-14T05:44:55.727Z,49.40
2018-02-14T05:45:55.710Z,30.80
2018-02-14T05:46:55.730Z,29.80
2018-02-14T05:47:55.664Z,21.90
2018-02-14T05:48:55.629Z,24.10
2018-02-14T05:49:55.609Z,26.00
2018-02-14T05:50:55.589Z,20.00
2018-02-14T05:51:55.555Z,22.00
2018-02-14T05:52:55.582Z,20.30
2018-02-14T05:53:55.509Z,20.00
2018-02-14T05:54:55.581Z,23.10
2018-02-14T05:55:55.456Z,22.30
2018-02-14T05:56:55.501Z,21.00
2018-02-14T05:57:55.410Z,21.40
2018-02-14T05:58:55.384Z,21.70
2018-02-14T05:59:55.359Z,20.60
2018-02-14T06:00:55.460Z,19.90
2018-02-14T06:01:55.312Z,20.40
2018-02-14T06:02:55.291Z,19.10
2018-02-14T06:03:55.260Z,22.90
2018-02-14T06:04:55.297Z,20.60
2018-02-14T06:05:55.239Z,20.20
2018-02-14T06:06:55.200Z,19.60
2018-02-14T06:07:55.161Z,18.40
2018-02-14T06:08:55.144Z,23.40
2018-02-14T06:09:55.117Z,20.50
2018-02-14T06:10:55.088Z,24.70
2018-02-14T06:11:55.068Z,21.00
2018-02-14T06:12:55.041Z,18.30
2018-02-14T06:13:55.019Z,21.60
2018-02-14T06:14:54.988Z,18.80
2018-02-14T06:15:54.963Z,20.90
2018-02-14T06:16:54.942Z,22.40
2018-02-14T06:17:54.914Z,20.10
2018-02-14T06:18:54.892Z,21.00
2018-02-14T06:19:54.865Z,23.00
2018-02-14T06:20:54.840Z,22.90
2018-02-14T06:21:54.855Z,20.20
2018-02-14T06:22:54.793Z,23.20
2018-02-14T06:23:54.764Z,23.20
2018-02-14T06:24:54.741Z,22.90
2018-02-14T06:25:54.720Z,24.50
2018-02-14T06:26:54.691Z,22.30
2018-02-14T06:27:54.675Z,22.10
2018-02-14T06:28:54.639Z,20.50
2018-02-14T06:29:54.621Z,22.80
2018-02-14T06:30:54.605Z,22.10
2018-02-14T06:31:54.569Z,20.30
2018-02-14T06:32:54.546Z,22.10
2018-02-14T06:33:54.517Z,22.60
2018-02-14T06:34:54.511Z,20.60
2018-02-14T06:35:54.476Z,22.70
2018-02-14T06:36:54.439Z,21.40
2018-02-14T06:37:54.417Z,23.60
2018-02-14T06:38:54.390Z,20.60
2018-02-14T06:39:54.368Z,22.30
2018-02-14T06:40:54.342Z,25.90
2018-02-14T06:41:54.313Z,23.30
2018-02-14T06:42:54.291Z,23.60
2018-02-14T06:43:54.267Z,22.60
2018-02-14T06:44:54.240Z,22.00
2018-02-14T06:45:54.220Z,21.80
2018-02-14T06:46:54.194Z,23.60
2018-02-14T06:47:54.164Z,23.20
2018-02-14T06:48:54.142Z,21.90
2018-02-14T06:49:54.121Z,23.00
2018-02-14T06:50:54.090Z,24.20
2018-02-14T06:51:54.064Z,24.60
2018-02-14T06:52:54.045Z,23.90
2018-02-14T06:53:54.023Z,22.60
2018-02-14T06:54:53.991Z,23.70
2018-02-14T06:55:53.965Z,23.50
2018-02-14T06:56:53.939Z,22.70
2018-02-14T06:57:53.921Z,22.50
2018-02-14T06:58:53.893Z,23.20
2018-02-14T06:59:53.928Z,23.70
2018-02-14T07:00:53.839Z,24.50
2018-02-14T07:01:53.830Z,20.00
2018-02-14T07:02:53.790Z,22.20
2018-02-14T07:03:53.813Z,24.00
2018-02-14T07:04:53.738Z,21.60
2018-02-14T07:05:53.769Z,21.70
2018-02-14T07:06:53.690Z,20.10
2018-02-14T07:07:53.666Z,21.90
2018-02-14T07:08:53.642Z,23.00
2018-02-14T07:09:53.716Z,20.80
2018-02-14T07:10:53.589Z,21.40
2018-02-14T07:11:53.582Z,24.20
2018-02-14T07:12:53.541Z,24.60
2018-02-14T07:13:53.530Z,22.40
2018-02-14T07:14:53.488Z,20.60
2018-02-14T07:15:53.556Z,24.90
2018-02-14T07:16:53.444Z,24.70
2018-02-14T07:17:53.468Z,21.70
2018-02-14T07:18:53.397Z,23.10
2018-02-14T07:19:53.372Z,19.70
2018-02-14T07:20:53.350Z,20.80
2018-02-14T07:21:53.385Z,21.60
2018-02-14T07:22:53.297Z,23.20
2018-02-14T07:23:53.379Z,21.20
2018-02-14T07:24:53.260Z,21.40
2018-02-14T07:25:53.241Z,20.00
2018-02-14T07:26:53.209Z,18.60
2018-02-14T07:27:53.190Z,19.40
2018-02-14T07:28:53.175Z,20.10
2018-02-14T07:29:53.149Z,19.80
2018-02-14T07:30:53.129Z,18.80
2018-02-14T07:31:53.112Z,21.50
2018-02-14T07:32:53.089Z,18.90
2018-02-14T07:33:53.077Z,18.30
2018-02-14T07:34:53.040Z,20.90
2018-02-14T07:35:53.019Z,19.30
2018-02-14T07:36:53.000Z,18.00
2018-02-14T07:37:52.979Z,18.90
2018-02-14T07:38:52.954Z,23.30
2018-02-14T07:39:52.939Z,23.10
2018-02-14T07:40:52.914Z,20.70
2018-02-14T07:41:52.896Z,18.60
2018-02-14T07:42:52.881Z,20.30
2018-02-14T07:43:52.850Z,19.30
2018-02-14T07:44:52.828Z,21.00
2018-02-14T07:45:52.811Z,18.30
2018-02-14T07:46:52.792Z,20.60
2018-02-14T07:47:52.773Z,17.90
2018-02-14T07:48:52.763Z,18.40
2018-02-14T07:49:52.743Z,17.50
2018-02-14T07:50:52.722Z,16.80
2018-02-14T07:51:52.712Z,16.80
2018-02-14T07:52:52.694Z,16.80
2018-02-14T07:53:52.683Z,17.10
2018-02-14T07:54:52.661Z,17.30
2018-02-14T07:55:52.645Z,18.00
2018-02-14T07:56:52.632Z,18.90
2018-02-14T07:57:52.620Z,19.20
2018-02-14T07:58:52.610Z,16.20
2018-02-14T07:59:52.591Z,16.10
2018-02-14T08:00:52.578Z,17.40
2018-02-14T08:01:52.571Z,16.00
2018-02-14T08:02:52.557Z,15.70
2018-02-14T08:03:52.543Z,16.40
2018-02-14T08:04:52.536Z,16.30
2018-02-14T08:05:52.521Z,15.80
2018-02-14T08:06:52.510Z,15.50
2018-02-14T08:07:52.499Z,15.00
2018-02-14T08:08:52.489Z,15.50
2018-02-14T08:09:52.479Z,17.40
2018-02-14T08:10:52.469Z,15.30
2018-02-14T08:11:52.520Z,15.60
2018-02-14T08:12:52.451Z,14.90
2018-02-14T08:13:52.444Z,15.10
2018-02-14T08:14:52.432Z,15.30
2018-02-14T08:15:52.434Z,15.30
2018-02-14T08:16:52.414Z,15.40
2018-02-14T08:17:52.412Z,15.90
2018-02-14T08:18:52.395Z,15.30
2018-02-14T08:19:52.389Z,14.90
2018-02-14T08:20:52.392Z,16.10
2018-02-14T08:21:52.373Z,15.70
2018-02-14T08:22:52.362Z,16.00
2018-02-14T08:23:52.353Z,15.90
2018-02-14T08:24:52.359Z,14.70
2018-02-14T08:25:52.341Z,16.80
2018-02-14T08:26:52.327Z,15.30
2018-02-14T08:27:52.321Z,17.20
2018-02-14T08:28:52.321Z,15.60
2018-02-14T08:29:52.312Z,16.10
2018-02-14T08:30:52.294Z,16.10
2018-02-14T08:31:52.289Z,15.40
2018-02-14T08:32:52.285Z,15.50
2018-02-14T08:33:52.282Z,15.70
2018-02-14T08:34:52.260Z,15.90
2018-02-14T08:35:52.252Z,16.20
2018-02-14T08:36:52.255Z,15.90
2018-02-14T08:37:52.235Z,16.30
2018-02-14T08:38:52.226Z,15.60
2018-02-14T08:39:52.217Z,17.50
2018-02-14T08:40:52.213Z,16.80
2018-02-14T08:41:52.202Z,16.80
2018-02-14T08:42:52.201Z,14.80
2018-02-14T08:43:52.190Z,15.50
2018-02-14T08:44:52.180Z,16.10
2018-02-14T08:45:52.181Z,15.00
2018-02-14T08:46:52.175Z,16.30
2018-02-14T08:47:52.161Z,16.70
2018-02-14T08:48:52.242Z,15.40
2018-02-14T08:49:52.140Z,16.50
2018-02-14T08:50:52.180Z,16.40
2018-02-14T08:51:52.120Z,16.20
2018-02-14T08:52:52.127Z,17.30
2018-02-14T08:53:52.111Z,16.00
2018-02-14T08:54:52.203Z,17.00
2018-02-14T08:55:52.093Z,15.60
2018-02-14T08:56:52.135Z,15.90
2018-02-14T08:57:52.089Z,16.20
2018-02-14T08:58:52.122Z,16.20
2018-02-14T08:59:52.063Z,15.50
2018-02-14T09:00:52.106Z,15.80
2018-02-14T09:01:52.049Z,15.40
2018-02-14T09:02:52.052Z,16.60
2018-02-14T09:03:52.038Z,14.40
2018-02-14T09:04:52.033Z,14.90
2018-02-14T09:05:52.024Z,14.80
2018-02-14T09:06:52.024Z,15.30
2018-02-14T09:07:52.015Z,16.20
2018-02-14T09:08:52.008Z,15.40
2018-02-14T09:09:52.004Z,15.00
2018-02-14T09:10:52.006Z,15.70
2018-02-14T09:11:51.990Z,15.50
2018-02-14T09:12:51.986Z,15.60
2018-02-14T09:13:51.989Z,15.10
2018-02-14T09:14:51.987Z,14.40
2018-02-14T09:15:51.990Z,14.70
2018-02-14T09:16:51.962Z,14.70
2018-02-14T09:17:51.955Z,15.30
2018-02-14T09:18:51.953Z,14.70
2018-02-14T09:19:51.968Z,14.40
2018-02-14T09:20:51.941Z,14.90
2018-02-14T09:21:51.937Z,14.70
2018-02-14T09:22:51.927Z,14.90
2018-02-14T09:23:51.932Z,14.10
2018-02-14T09:24:51.922Z,14.70
2018-02-14T09:25:51.916Z,14.70
2018-02-14T09:26:51.909Z,14.60
2018-02-14T09:27:51.909Z,14.80
2018-02-14T09:28:51.922Z,15.00
2018-02-14T09:29:51.898Z,14.60
2018-02-14T09:30:51.895Z,14.00
2018-02-14T09:31:51.891Z,14.40
2018-02-14T09:32:51.877Z,14.30
2018-02-14T09:33:51.868Z,13.80
2018-02-14T09:34:51.866Z,14.10
2018-02-14T09:35:51.857Z,14.50
2018-02-14T09:36:51.853Z,13.60
2018-02-14T09:37:51.849Z,14.10
2018-02-14T09:38:51.840Z,14.30
2018-02-14T09:39:51.836Z,14.10
2018-02-14T09:40:51.839Z,14.00
2018-02-14T09:41:51.831Z,13.90
2018-02-14T09:42:51.825Z,12.80
2018-02-14T09:43:51.818Z,14.30
2018-02-14T09:44:51.809Z,14.20
2018-02-14T09:45:51.805Z,12.90
2018-02-14T09:46:51.800Z,13.50
2018-02-14T09:47:51.799Z,13.30
2018-02-14T09:48:51.793Z,12.50
2018-02-14T09:49:51.783Z,13.10
2018-02-14T09:50:51.778Z,12.90
2018-02-14T09:51:51.775Z,13.00
2018-02-14T09:52:51.768Z,13.40
2018-02-14T09:53:51.758Z,13.50
2018-02-14T09:54:51.753Z,11.70
2018-02-14T09:55:51.749Z,12.90
2018-02-14T09:56:51.741Z,12.90
2018-02-14T09:57:51.738Z,12.50
2018-02-14T09:58:51.728Z,11.60
2018-02-14T09:59:51.721Z,12.30
2018-02-14T10:00:51.714Z,12.70
2018-02-14T10:01:51.709Z,12.60
2018-02-14T10:02:51.698Z,11.90
2018-02-14T10:03:51.693Z,11.90
2018-02-14T10:04:51.683Z,12.10
2018-02-14T10:05:51.682Z,12.90
2018-02-14T10:06:51.671Z,12.10
2018-02-14T10:07:51.668Z,12.40
2018-02-14T10:08:51.657Z,11.70
2018-02-14T10:09:51.648Z,13.20
2018-02-14T10:10:51.638Z,12.20
2018-02-14T10:11:51.653Z,12.70
2018-02-14T10:12:51.622Z,12.70
2018-02-14T10:13:51.614Z,12.10
2018-02-14T10:14:51.609Z,12.70
2018-02-14T10:15:51.600Z,13.00
2018-02-14T10:16:51.587Z,13.50
2018-02-14T10:17:51.585Z,12.60
2018-02-14T10:18:51.577Z,12.50
2018-02-14T10:19:51.562Z,12.50
2018-02-14T10:20:51.562Z,12.40
2018-02-14T10:21:51.555Z,12.20
2018-02-14T10:22:51.539Z,12.50
2018-02-14T10:23:51.526Z,12.20
2018-02-14T10:24:51.523Z,13.10
2018-02-14T10:25:51.510Z,13.00
2018-02-14T10:26:51.507Z,14.50
2018-02-14T10:27:51.499Z,12.80
2018-02-14T10:28:51.494Z,12.90
2018-02-14T10:29:51.475Z,11.90
2018-02-14T10:30:51.477Z,13.10
2018-02-14T10:31:51.456Z,12.90
2018-02-14T10:32:51.450Z,12.10
2018-02-14T10:33:51.433Z,12.90
2018-02-14T10:34:51.427Z,12.20
2018-02-14T10:35:51.418Z,12.90
2018-02-14T10:36:51.404Z,12.60
2018-02-14T10:37:51.396Z,14.00
2018-02-14T10:38:51.388Z,13.00
2018-02-14T10:39:51.372Z,15.60
2018-02-14T10:40:51.370Z,11.60
2018-02-14T10:41:51.349Z,12.60
2018-02-14T10:42:51.337Z,11.60
2018-02-14T10:43:51.326Z,13.90
2018-02-14T10:44:51.316Z,12.80
2018-02-14T10:45:51.309Z,14.80
2018-02-14T10:46:51.297Z,12.90
2018-02-14T10:47:51.285Z,10.90
2018-02-14T10:48:51.282Z,12.10
2018-02-14T10:49:51.269Z,10.00
2018-02-14T10:50:51.257Z,11.10
2018-02-14T10:51:51.239Z,11.60
2018-02-14T10:52:51.226Z,12.30
2018-02-14T10:53:51.212Z,11.00
2018-02-14T10:54:51.204Z,11.80
2018-02-14T10:55:51.187Z,11.90
2018-02-14T10:56:51.175Z,11.80
2018-02-14T10:57:51.265Z,11.60
2018-02-14T10:58:51.147Z,12.60
2018-02-14T10:59:51.194Z,10.10
2018-02-14T11:00:51.126Z,14.10
2018-02-14T11:01:51.214Z,12.20
2018-02-14T11:02:51.098Z,11.70
2018-02-14T11:03:51.099Z,11.70
2018-02-14T11:04:51.086Z,11.60
2018-02-14T11:05:51.092Z,11.50
2018-02-14T11:06:51.047Z,12.60
2018-02-14T11:07:51.139Z,12.50
2018-02-14T11:08:51.030Z,13.50
2018-02-14T11:09:51.007Z,11.90
2018-02-14T11:10:50.995Z,12.70
2018-02-14T11:11:51.007Z,12.20
2018-02-14T11:12:50.972Z,12.80
2018-02-14T11:13:51.008Z,13.80
2018-02-14T11:14:50.948Z,12.20
2018-02-14T11:15:50.936Z,12.40
2018-02-14T11:16:50.915Z,12.60
2018-02-14T11:17:50.903Z,12.10
2018-02-14T11:18:50.887Z,11.90
2018-02-14T11:19:50.928Z,12.20
2018-02-14T11:20:50.867Z,12.20
2018-02-14T11:21:50.848Z,11.80
2018-02-14T11:22:50.838Z,14.40
2018-02-14T11:23:50.827Z,12.70
2018-02-14T11:24:50.808Z,11.60
2018-02-14T11:25:50.801Z,10.80
2018-02-14T11:26:50.785Z,11.90
2018-02-14T11:27:50.767Z,11.10
2018-02-14T11:28:50.755Z,11.40
2018-02-14T11:29:50.745Z,11.10
2018-02-14T11:30:50.727Z,10.50
2018-02-14T11:31:50.717Z,10.80
2018-02-14T11:32:50.712Z,12.30
2018-02-14T11:33:50.691Z,12.00
2018-02-14T11:34:50.676Z,9.70
2018-02-14T11:35:50.661Z,11.20
2018-02-14T11:36:50.646Z,11.70
2018-02-14T11:37:50.639Z,11.50
2018-02-14T11:38:50.635Z,11.90
2018-02-14T11:39:50.608Z,10.50
2018-02-14T11:40:50.590Z,11.20
2018-02-14T11:41:50.578Z,10.70
2018-02-14T11:42:50.566Z,11.30
2018-02-14T11:43:50.551Z,12.90
2018-02-14T11:44:50.535Z,12.30
2018-02-14T11:45:50.524Z,12.80
2018-02-14T11:46:50.510Z,10.70
2018-02-14T11:47:50.494Z,13.10
2018-02-14T11:48:50.486Z,12.30
2018-02-14T11:49:50.474Z,11.60
2018-02-14T11:50:50.459Z,10.50
2018-02-14T11:51:50.437Z,10.20
2018-02-14T11:52:50.431Z,10.60
2018-02-14T11:53:50.411Z,9.60
2018-02-14T11:54:50.400Z,11.90
2018-02-14T11:55:50.380Z,10.20
2018-02-14T11:56:50.380Z,11.10
2018-02-14T11:57:50.358Z,11.10
2018-02-14T11:58:50.339Z,11.30
2018-02-14T11:59:50.326Z,10.50
2018-02-14T12:00:50.309Z,10.80
2018-02-14T12:01:50.300Z,10.60
2018-02-14T12:02:50.277Z,11.20
2018-02-14T12:03:50.267Z,10.50
2018-02-14T12:04:50.261Z,12.50
2018-02-14T12:05:50.239Z,11.10
2018-02-14T12:06:50.229Z,10.80
2018-02-14T12:07:50.210Z,12.40
2018-02-14T12:08:50.197Z,11.80
2018-02-14T12:09:50.182Z,12.00
2018-02-14T12:10:50.166Z,10.70
2018-02-14T12:11:50.150Z,10.20
2018-02-14T12:12:50.142Z,11.00
2018-02-14T12:13:50.126Z,10.50
2018-02-14T12:14:50.107Z,10.20
2018-02-14T12:15:50.093Z,8.80
2018-02-14T12:16:50.084Z,11.00
2018-02-14T12:17:50.068Z,8.00
2018-02-14T12:18:50.053Z,9.70
2018-02-14T12:19:50.036Z,8.50
2018-02-14T12:20:50.023Z,8.70
2018-02-14T12:21:50.008Z,8.50
2018-02-14T12:22:49.989Z,9.20
2018-02-14T12:23:49.978Z,8.70
2018-02-14T12:24:49.965Z,8.30
2018-02-14T12:25:49.953Z,8.50
2018-02-14T12:26:49.936Z,6.90
2018-02-14T12:27:49.918Z,7.60
2018-02-14T12:28:49.908Z,8.90
2018-02-14T12:29:49.888Z,7.40
2018-02-14T12:30:49.876Z,7.40
2018-02-14T12:31:49.859Z,7.50
2018-02-14T12:32:49.848Z,9.10
2018-02-14T12:33:49.832Z,9.20
2018-02-14T12:34:49.816Z,8.80
2018-02-14T12:35:49.798Z,7.90
2018-02-14T12:36:49.788Z,8.00
2018-02-14T12:37:49.772Z,8.30
2018-02-14T12:38:49.756Z,7.90
2018-02-14T12:39:49.733Z,8.20
2018-02-14T12:40:49.721Z,8.20
2018-02-14T12:41:49.709Z,8.20
2018-02-14T12:42:49.698Z,7.50
2018-02-14T12:43:49.676Z,8.70
2018-02-14T12:44:49.666Z,8.10
2018-02-14T12:45:49.646Z,8.70
2018-02-14T12:46:49.728Z,7.60
2018-02-14T12:47:49.616Z,10.20
2018-02-14T12:48:49.643Z,6.90
2018-02-14T12:49:49.576Z,7.80
2018-02-14T12:50:49.577Z,8.30
2018-02-14T12:51:49.547Z,8.10
2018-02-14T12:52:49.631Z,7.50